createdAt,value
2023-03-30T00:01:22.575Z,8.23
2023-03-30T00:03:55.342Z,8.53
2023-03-30T00:06:24.499Z,8.17
2023-03-30T00:08:57.313Z,8.23
2023-03-30T00:11:27.781Z,8.90
2023-03-30T00:13:57.053Z,8.13
2023-03-30T00:16:27.266Z,8.43
2023-03-30T00:18:57.912Z,8.30
2023-03-30T00:21:28.116Z,7.93
2023-03-30T00:23:57.248Z,7.90
2023-03-30T00:26:27.186Z,8.17
2023-03-30T00:28:56.507Z,8.57
2023-03-30T00:31:25.902Z,8.87
2023-03-30T00:33:54.798Z,8.70
2023-03-30T00:36:26.060Z,8.80
2023-03-30T00:38:55.196Z,9.23
2023-03-30T00:41:25.040Z,9.40
2023-03-30T00:44:02.750Z,8.20
2023-03-30T00:46:33.168Z,8.77
2023-03-30T00:49:05.603Z,8.60
2023-03-30T00:51:38.959Z,8.80
2023-03-30T00:54:12.845Z,8.20
2023-03-30T00:56:42.256Z,9.03
2023-03-30T00:59:12.045Z,9.27
2023-03-30T01:01:42.170Z,9.23
2023-03-30T01:04:13.981Z,8.87
2023-03-30T01:06:46.298Z,9.03
2023-03-30T01:09:17.432Z,9.60
2023-03-30T01:11:47.020Z,8.70
2023-03-30T01:14:17.208Z,8.97
2023-03-30T01:16:54.864Z,8.57
2023-03-30T01:19:48.987Z,9.70
2023-03-30T01:22:42.155Z,8.70
2023-03-30T01:25:46.671Z,8.87
2023-03-30T01:28:40.297Z,8.73
2023-03-30T01:31:35.166Z,9.50
2023-03-30T01:34:40.776Z,8.83
2023-03-30T01:37:32.289Z,8.93
2023-03-30T01:40:10.028Z,8.97
2023-03-30T01:42:45.336Z,9.10
2023-03-30T01:45:20.273Z,9.27
2023-03-30T01:47:54.342Z,9.43
2023-03-30T01:50:29.050Z,9.43
2023-03-30T01:53:02.451Z,8.73
2023-03-30T01:55:36.013Z,9.07
2023-03-30T01:58:10.980Z,9.77
2023-03-30T02:00:43.620Z,9.13
2023-03-30T02:03:17.341Z,9.30
2023-03-30T02:05:49.168Z,9.27
2023-03-30T02:08:23.162Z,9.27
2023-03-30T02:10:56.246Z,9.00
2023-03-30T02:13:27.053Z,8.90
2023-03-30T02:16:00.289Z,8.80
2023-03-30T02:18:29.369Z,8.50
2023-03-30T02:20:59.405Z,8.73
2023-03-30T02:23:35.022Z,9.23
2023-03-30T02:26:07.970Z,9.57
2023-03-30T02:28:37.188Z,9.10
2023-03-30T02:31:11.208Z,9.50
2023-03-30T02:34:01.061Z,8.63
2023-03-30T02:36:43.147Z,9.47
2023-03-30T02:39:27.452Z,10.00
2023-03-30T02:42:18.805Z,9.00
2023-03-30T02:44:56.849Z,9.43
2023-03-30T02:47:32.490Z,9.50
2023-03-30T02:50:05.413Z,9.60
2023-03-30T02:52:53.497Z,10.27
2023-03-30T02:55:29.060Z,9.43
2023-03-30T02:58:17.043Z,9.27
2023-03-30T03:01:04.501Z,9.20
2023-03-30T03:03:49.192Z,9.57
2023-03-30T03:06:20.479Z,9.90
2023-03-30T03:08:56.222Z,9.80
2023-03-30T03:11:29.017Z,9.43
2023-03-30T03:14:00.183Z,9.33
2023-03-30T03:16:31.160Z,9.40
2023-03-30T03:19:11.865Z,9.43
2023-03-30T03:21:42.049Z,8.87
2023-03-30T03:24:13.409Z,9.53
2023-03-30T03:27:17.726Z,9.83
2023-03-30T03:30:12.513Z,9.63
2023-03-30T03:32:48.031Z,10.37
2023-03-30T03:35:18.089Z,10.50
2023-03-30T03:37:46.991Z,10.23
2023-03-30T03:40:16.586Z,10.13
2023-03-30T03:42:46.306Z,10.47
2023-03-30T03:45:18.072Z,11.40
2023-03-30T03:47:59.148Z,9.93
2023-03-30T03:50:52.053Z,10.37
2023-03-30T03:53:22.527Z,10.90
2023-03-30T03:55:54.828Z,11.10
2023-03-30T03:58:25.372Z,10.77
2023-03-30T04:01:01.164Z,10.47
2023-03-30T04:03:30.806Z,10.87
2023-03-30T04:06:01.179Z,10.10
2023-03-30T04:08:30.891Z,10.67
2023-03-30T04:11:26.641Z,10.47
2023-03-30T04:14:15.953Z,9.93
2023-03-30T04:17:16.653Z,10.80
2023-03-30T04:20:05.875Z,11.00
2023-03-30T04:22:50.057Z,11.47
2023-03-30T04:25:48.204Z,11.57
2023-03-30T04:28:21.837Z,11.50
2023-03-30T04:31:04.508Z,11.17
2023-03-30T04:33:54.736Z,11.50
2023-03-30T04:36:44.499Z,11.43
2023-03-30T04:39:34.000Z,11.80
2023-03-30T04:42:14.152Z,12.13
2023-03-30T04:44:51.094Z,11.83
2023-03-30T04:47:20.479Z,10.97
2023-03-30T04:50:09.211Z,10.37
2023-03-30T04:52:56.968Z,11.30
2023-03-30T04:55:52.708Z,10.80
2023-03-30T04:58:44.722Z,10.53
2023-03-30T05:01:22.636Z,10.77
2023-03-30T05:04:12.118Z,10.30
2023-03-30T05:06:44.171Z,10.33
2023-03-30T05:09:16.281Z,10.80
2023-03-30T05:12:00.030Z,11.63
2023-03-30T05:14:47.557Z,11.23
2023-03-30T05:17:48.710Z,10.37
2023-03-30T05:20:37.900Z,11.47
2023-03-30T05:23:24.652Z,10.80
2023-03-30T05:25:55.203Z,10.37
2023-03-30T05:28:52.175Z,11.63
2023-03-30T05:31:35.061Z,10.17
2023-03-30T05:34:33.303Z,10.80
2023-03-30T05:37:25.521Z,10.23
2023-03-30T05:40:09.447Z,10.27
2023-03-30T05:42:46.275Z,11.97
2023-03-30T05:45:38.550Z,11.27
2023-03-30T05:48:25.760Z,11.13
2023-03-30T05:51:18.890Z,11.83
2023-03-30T05:54:11.243Z,10.40
2023-03-30T05:56:52.529Z,11.63
2023-03-30T05:59:44.859Z,11.37
2023-03-30T06:02:43.098Z,9.97
2023-03-30T06:05:17.315Z,10.60
2023-03-30T06:07:48.170Z,9.93
2023-03-30T06:10:17.908Z,11.77
2023-03-30T06:12:49.746Z,10.47
2023-03-30T06:15:42.248Z,10.87
2023-03-30T06:18:15.798Z,10.83
2023-03-30T06:20:53.383Z,10.90
2023-03-30T06:23:23.220Z,12.53
2023-03-30T06:25:55.578Z,10.03
2023-03-30T06:28:31.541Z,10.03
2023-03-30T06:31:03.178Z,9.67
2023-03-30T06:33:32.879Z,10.03
2023-03-30T06:36:04.471Z,10.03
2023-03-30T06:38:33.534Z,10.53
2023-03-30T06:41:07.072Z,10.50
2023-03-30T06:43:40.066Z,10.53
2023-03-30T06:46:15.680Z,10.63
2023-03-30T06:48:52.039Z,9.57
2023-03-30T06:51:40.248Z,10.77
2023-03-30T06:54:09.857Z,9.10
2023-03-30T06:56:41.769Z,10.10
2023-03-30T06:59:15.496Z,11.47
2023-03-30T07:02:04.312Z,11.37
2023-03-30T07:05:03.085Z,10.30
2023-03-30T07:07:46.391Z,10.20
2023-03-30T07:10:16.154Z,10.73
2023-03-30T07:12:47.208Z,10.67
2023-03-30T07:15:18.080Z,10.50
2023-03-30T07:17:47.209Z,9.70
2023-03-30T07:20:16.410Z,10.97
2023-03-30T07:23:04.810Z,10.80
2023-03-30T07:25:34.053Z,10.53
2023-03-30T07:28:12.119Z,10.43
2023-03-30T07:30:42.906Z,11.43
2023-03-30T07:33:14.804Z,10.50
2023-03-30T07:35:46.022Z,10.67
2023-03-30T07:38:17.651Z,11.67
2023-03-30T07:40:52.623Z,11.03
2023-03-30T07:43:23.763Z,11.37
2023-03-30T07:45:54.449Z,11.47
2023-03-30T07:48:33.345Z,13.60
2023-03-30T07:51:03.930Z,11.37
2023-03-30T07:53:35.310Z,11.33
2023-03-30T07:56:08.733Z,10.50
2023-03-30T07:58:45.877Z,11.17
2023-03-30T08:01:17.861Z,11.67
2023-03-30T08:03:48.382Z,10.73
2023-03-30T08:06:18.234Z,11.70
2023-03-30T08:08:50.914Z,11.67
2023-03-30T08:11:20.522Z,11.93
2023-03-30T08:13:49.979Z,12.37
2023-03-30T08:16:20.558Z,13.50
2023-03-30T08:18:49.703Z,13.10
2023-03-30T08:21:19.430Z,12.07
2023-03-30T08:23:48.845Z,11.57
2023-03-30T08:26:18.195Z,12.07
2023-03-30T08:28:47.456Z,12.43
2023-03-30T08:31:18.369Z,12.93
2023-03-30T08:33:49.124Z,11.60
2023-03-30T08:36:20.185Z,13.23
2023-03-30T08:38:49.539Z,13.63
2023-03-30T08:41:48.246Z,13.50
2023-03-30T08:44:29.603Z,14.03
2023-03-30T08:46:59.936Z,13.07
2023-03-30T08:49:33.441Z,12.40
2023-03-30T08:52:06.256Z,12.87
2023-03-30T08:54:36.162Z,12.77
2023-03-30T08:57:13.249Z,12.93
2023-03-30T08:59:47.771Z,13.30
2023-03-30T09:02:20.146Z,14.13
2023-03-30T09:05:02.294Z,13.80
2023-03-30T09:07:33.850Z,14.00
2023-03-30T09:10:03.068Z,13.03
2023-03-30T09:12:39.869Z,12.80
2023-03-30T09:15:16.644Z,14.37
2023-03-30T09:17:50.302Z,12.93
2023-03-30T09:20:25.215Z,13.07
2023-03-30T09:22:55.836Z,12.83
2023-03-30T09:25:32.413Z,12.17
2023-03-30T09:28:11.871Z,12.77
2023-03-30T09:30:43.783Z,12.57
2023-03-30T09:33:24.552Z,12.50
2023-03-30T09:36:07.834Z,12.13
2023-03-30T09:38:41.656Z,13.30
2023-03-30T09:41:30.175Z,11.57
2023-03-30T09:44:01.163Z,12.87
2023-03-30T09:46:30.717Z,10.17
2023-03-30T09:49:15.390Z,10.70
2023-03-30T09:52:02.338Z,10.47
2023-03-30T09:54:37.807Z,9.47
2023-03-30T09:57:07.440Z,10.40
2023-03-30T09:59:37.816Z,9.73
2023-03-30T10:02:12.267Z,10.33
2023-03-30T10:04:57.522Z,9.13
2023-03-30T10:07:31.019Z,9.40
2023-03-30T10:10:02.515Z,8.83
2023-03-30T10:12:31.784Z,8.60
2023-03-30T10:15:04.268Z,9.07
2023-03-30T10:17:33.969Z,7.87
2023-03-30T10:20:21.766Z,7.77
2023-03-30T10:22:54.351Z,7.20
2023-03-30T10:25:27.393Z,6.57
2023-03-30T10:27:58.607Z,7.10
2023-03-30T10:30:28.467Z,7.17
2023-03-30T10:33:00.593Z,7.47
2023-03-30T10:35:37.183Z,6.80
2023-03-30T10:38:10.412Z,6.17
2023-03-30T10:40:42.048Z,6.30
2023-03-30T10:43:15.872Z,7.20
2023-03-30T10:45:48.954Z,5.33
2023-03-30T10:48:31.722Z,6.67
2023-03-30T10:51:10.356Z,6.40
2023-03-30T10:53:50.973Z,6.13
2023-03-30T10:56:28.682Z,5.97
2023-03-30T10:59:25.200Z,6.07
2023-03-30T11:02:13.476Z,5.60
2023-03-30T11:04:47.079Z,6.47
2023-03-30T11:07:28.677Z,5.97
2023-03-30T11:10:04.403Z,6.30
2023-03-30T11:12:39.290Z,6.00
2023-03-30T11:15:13.348Z,7.33
2023-03-30T11:17:51.254Z,5.90
2023-03-30T11:20:27.326Z,5.77
2023-03-30T11:23:01.952Z,6.73
2023-03-30T11:25:37.679Z,5.17
2023-03-30T11:28:15.942Z,4.67
2023-03-30T11:30:45.948Z,4.97
2023-03-30T11:33:22.203Z,5.33
2023-03-30T11:35:55.083Z,4.40
2023-03-30T11:38:29.207Z,4.63
2023-03-30T11:41:04.896Z,4.10
2023-03-30T11:43:34.444Z,5.37
2023-03-30T11:46:09.155Z,4.87
2023-03-30T11:49:04.348Z,7.17
2023-03-30T11:51:50.807Z,4.90
2023-03-30T11:54:52.627Z,5.23
2023-03-30T11:57:38.072Z,6.83
2023-03-30T12:00:29.005Z,4.63
2023-03-30T12:03:08.796Z,5.80
2023-03-30T12:05:43.561Z,7.53
2023-03-30T12:08:26.957Z,7.30
2023-03-30T12:11:03.536Z,5.47
2023-03-30T12:13:44.815Z,5.90
2023-03-30T12:16:23.387Z,6.20
2023-03-30T12:19:04.801Z,5.63
2023-03-30T12:21:37.744Z,7.10
2023-03-30T12:24:17.368Z,8.07
2023-03-30T12:27:03.794Z,5.80
2023-03-30T12:32:27.731Z,5.80
2023-03-30T12:35:01.083Z,7.23
2023-03-30T12:37:34.702Z,5.77
2023-03-30T12:40:09.141Z,5.10
2023-03-30T12:42:46.286Z,5.73
2023-03-30T12:45:31.683Z,5.87
2023-03-30T12:48:18.617Z,5.40
2023-03-30T12:51:00.111Z,7.73
2023-03-30T12:53:53.731Z,5.03
2023-03-30T12:56:31.438Z,6.20
2023-03-30T12:59:27.035Z,6.20
2023-03-30T13:02:06.678Z,4.80
2023-03-30T13:04:38.670Z,5.13
2023-03-30T13:07:09.804Z,4.63
2023-03-30T13:09:57.786Z,5.17
2023-03-30T13:12:39.117Z,4.73
2023-03-30T13:15:37.410Z,5.57
2023-03-30T13:18:31.869Z,5.47
2023-03-30T13:21:07.451Z,5.57
2023-03-30T13:23:37.763Z,7.57
2023-03-30T13:26:33.766Z,8.97
2023-03-30T13:29:08.878Z,4.90
2023-03-30T13:32:02.822Z,5.17
2023-03-30T13:35:03.559Z,6.00
2023-03-30T13:37:59.715Z,4.80
2023-03-30T13:40:42.023Z,4.80
2023-03-30T13:43:24.549Z,5.53
2023-03-30T13:48:52.976Z,5.47
2023-03-30T13:51:28.397Z,5.03
2023-03-30T13:54:02.208Z,4.57
2023-03-30T13:56:33.269Z,4.67
2023-03-30T13:59:06.772Z,5.03
2023-03-30T14:01:39.611Z,4.93
2023-03-30T14:04:13.759Z,4.53
2023-03-30T14:06:47.022Z,5.47
2023-03-30T14:09:21.489Z,4.30
2023-03-30T14:11:52.474Z,4.97
2023-03-30T14:14:27.861Z,4.83
2023-03-30T14:16:57.624Z,4.40
2023-03-30T14:19:29.162Z,7.00
2023-03-30T14:22:03.243Z,5.20
2023-03-30T14:24:34.056Z,5.60
2023-03-30T14:27:06.178Z,4.73
2023-03-30T14:29:35.412Z,5.90
2023-03-30T14:32:09.249Z,4.60
2023-03-30T14:34:39.558Z,4.37
2023-03-30T14:37:12.374Z,4.53
2023-03-30T14:39:44.071Z,4.70
2023-03-30T14:42:18.751Z,5.07
2023-03-30T14:44:49.598Z,5.70
2023-03-30T14:47:22.194Z,4.73
2023-03-30T14:49:55.178Z,5.03
2023-03-30T14:52:29.988Z,6.10
2023-03-30T14:55:07.892Z,5.30
2023-03-30T14:57:41.811Z,4.50
2023-03-30T15:00:19.519Z,5.60
2023-03-30T15:02:52.398Z,5.40
2023-03-30T15:05:25.190Z,5.70
2023-03-30T15:07:55.906Z,5.17
2023-03-30T15:10:34.634Z,6.13
2023-03-30T15:13:07.466Z,5.53
2023-03-30T15:15:37.129Z,4.43
2023-03-30T15:18:06.904Z,5.77
2023-03-30T15:20:35.993Z,4.67
2023-03-30T15:23:06.348Z,5.40
2023-03-30T15:25:36.493Z,4.73
2023-03-30T15:28:08.625Z,4.90
2023-03-30T15:30:40.461Z,4.53
2023-03-30T15:33:21.777Z,5.67
2023-03-30T15:35:53.425Z,6.43
2023-03-30T15:38:34.155Z,5.27
2023-03-30T15:41:04.396Z,6.10
2023-03-30T15:43:38.272Z,4.70
2023-03-30T15:46:10.418Z,4.53
2023-03-30T15:48:43.261Z,5.00
2023-03-30T15:51:16.195Z,5.20
2023-03-30T15:53:52.534Z,5.97
2023-03-30T15:56:27.601Z,5.13
2023-03-30T15:58:59.585Z,4.10
2023-03-30T16:01:41.257Z,3.87
2023-03-30T16:04:14.110Z,3.70
2023-03-30T16:06:45.185Z,3.50
2023-03-30T16:09:17.670Z,3.83
2023-03-30T16:11:47.630Z,3.90
2023-03-30T16:14:19.987Z,3.83
2023-03-30T16:16:49.402Z,4.10
2023-03-30T16:19:22.772Z,4.07
2023-03-30T16:21:53.088Z,4.67
2023-03-30T16:24:23.786Z,3.93
2023-03-30T16:26:52.672Z,4.10
2023-03-30T16:29:24.060Z,4.37
2023-03-30T16:31:54.288Z,4.60
2023-03-30T16:34:23.570Z,4.47
2023-03-30T16:36:53.232Z,7.77
2023-03-30T16:39:25.808Z,5.23
2023-03-30T16:41:56.068Z,4.37
2023-03-30T16:44:26.424Z,4.27
2023-03-30T16:46:55.554Z,4.73
2023-03-30T16:49:26.850Z,4.37
2023-03-30T16:51:58.206Z,5.00
2023-03-30T16:54:32.682Z,4.47
2023-03-30T16:57:02.431Z,4.43
2023-03-30T16:59:32.696Z,6.30
2023-03-30T17:02:02.575Z,5.27
2023-03-30T17:04:31.678Z,4.97
2023-03-30T17:07:00.731Z,4.97
2023-03-30T17:09:31.183Z,5.30
2023-03-30T17:12:00.533Z,4.80
2023-03-30T17:14:30.167Z,5.10
2023-03-30T17:16:59.413Z,4.90
2023-03-30T17:19:29.087Z,5.27
2023-03-30T17:21:58.135Z,5.57
2023-03-30T17:24:26.992Z,5.57
2023-03-30T17:26:58.340Z,4.50
2023-03-30T17:29:27.479Z,5.07
2023-03-30T17:31:56.600Z,5.23
2023-03-30T17:34:25.809Z,5.70
2023-03-30T17:36:54.722Z,5.73
2023-03-30T17:39:23.429Z,5.57
2023-03-30T17:41:52.113Z,5.90
2023-03-30T17:44:22.519Z,7.17
2023-03-30T17:46:51.479Z,5.17
2023-03-30T17:49:20.690Z,6.20
2023-03-30T17:51:49.630Z,5.60
2023-03-30T17:54:18.529Z,7.57
2023-03-30T17:56:47.507Z,6.00
2023-03-30T17:59:18.086Z,5.57
2023-03-30T18:01:48.485Z,6.40
2023-03-30T18:04:17.651Z,6.00
2023-03-30T18:06:48.683Z,6.03
2023-03-30T18:09:17.860Z,5.80
2023-03-30T18:11:46.731Z,5.70
2023-03-30T18:14:15.636Z,5.53
2023-03-30T18:16:45.926Z,6.00
2023-03-30T18:19:16.481Z,6.90
2023-03-30T18:21:45.555Z,7.43
2023-03-30T18:24:15.364Z,7.27
2023-03-30T18:26:45.673Z,7.30
2023-03-30T18:29:20.008Z,6.70
2023-03-30T18:31:49.291Z,6.33
2023-03-30T18:34:20.269Z,7.23
2023-03-30T18:36:49.097Z,6.60
2023-03-30T18:39:19.725Z,7.20
2023-03-30T18:41:49.075Z,7.50
2023-03-30T18:44:18.202Z,7.10
2023-03-30T18:46:51.101Z,6.63
2023-03-30T18:49:23.657Z,6.80
2023-03-30T18:51:53.290Z,6.77
2023-03-30T18:54:22.321Z,7.37
2023-03-30T18:56:51.330Z,7.73
2023-03-30T18:59:23.042Z,6.80
2023-03-30T19:01:52.102Z,7.60
2023-03-30T19:04:22.617Z,8.13
2023-03-30T19:06:52.963Z,7.73
2023-03-30T19:09:32.885Z,6.77
2023-03-30T19:12:14.141Z,6.77
2023-03-30T19:14:43.168Z,7.50
2023-03-30T19:17:12.359Z,7.20
2023-03-30T19:19:42.666Z,6.33
2023-03-30T19:22:11.615Z,6.80
2023-03-30T19:24:40.571Z,6.40
2023-03-30T19:27:09.477Z,6.63
2023-03-30T19:29:40.607Z,6.90
2023-03-30T19:32:09.500Z,7.57
2023-03-30T19:34:38.504Z,7.20
2023-03-30T19:37:08.924Z,6.80
2023-03-30T19:39:37.885Z,7.13
2023-03-30T19:42:08.074Z,6.87
2023-03-30T19:44:38.341Z,7.10
2023-03-30T19:47:07.652Z,7.93
2023-03-30T19:49:36.819Z,7.33
2023-03-30T19:52:06.457Z,7.90
2023-03-30T19:54:37.194Z,7.17
2023-03-30T19:57:06.515Z,6.93
2023-03-30T19:59:35.694Z,6.43
2023-03-30T20:02:04.928Z,6.17
2023-03-30T20:04:34.070Z,7.27
2023-03-30T20:07:03.383Z,6.87
2023-03-30T20:09:33.179Z,6.40
2023-03-30T20:12:04.466Z,7.70
2023-03-30T20:14:34.084Z,8.30
2023-03-30T20:17:04.427Z,7.90
2023-03-30T20:19:33.520Z,7.90
2023-03-30T20:22:02.805Z,9.03
2023-03-30T20:24:31.971Z,12.43
2023-03-30T20:27:01.179Z,8.10
2023-03-30T20:29:31.977Z,8.40
2023-03-30T20:32:01.261Z,8.23
2023-03-30T20:34:31.473Z,7.23
2023-03-30T20:37:01.054Z,7.80
2023-03-30T20:39:30.084Z,6.97
2023-03-30T20:42:01.961Z,7.80
2023-03-30T20:44:32.416Z,13.70
2023-03-30T20:47:02.620Z,13.87
2023-03-30T20:49:33.541Z,13.37
2023-03-30T20:52:03.033Z,10.80
2023-03-30T20:54:32.340Z,10.87
2023-03-30T20:57:01.545Z,10.40
2023-03-30T20:59:33.213Z,10.40
2023-03-30T21:02:03.590Z,10.73
2023-03-30T21:04:34.191Z,12.03
2023-03-30T21:07:03.348Z,11.90
2023-03-30T21:09:34.080Z,11.63
2023-03-30T21:12:03.437Z,11.77
2023-03-30T21:14:34.046Z,11.37
2023-03-30T21:17:03.280Z,10.60
2023-03-30T21:19:32.556Z,11.50
2023-03-30T21:22:01.710Z,11.57
2023-03-30T21:24:31.074Z,10.47
2023-03-30T21:27:00.212Z,10.10
2023-03-30T21:29:29.243Z,10.37
2023-03-30T21:31:59.684Z,11.17
2023-03-30T21:34:28.706Z,9.37
2023-03-30T21:36:57.798Z,9.63
2023-03-30T21:39:26.989Z,9.23
2023-03-30T21:41:55.985Z,9.20
2023-03-30T21:44:25.435Z,8.83
2023-03-30T21:46:54.388Z,7.90
2023-03-30T21:49:24.644Z,7.93
2023-03-30T21:51:53.495Z,7.37
2023-03-30T21:54:22.332Z,7.27
2023-03-30T21:56:51.361Z,7.33
2023-03-30T21:59:24.289Z,7.70
2023-03-30T22:01:54.990Z,7.60
2023-03-30T22:04:26.973Z,6.70
2023-03-30T22:06:59.896Z,6.63
2023-03-30T22:09:28.891Z,6.00
2023-03-30T22:11:57.910Z,6.33
2023-03-30T22:14:26.774Z,6.00
2023-03-30T22:16:57.902Z,5.97
2023-03-30T22:19:31.996Z,6.60
2023-03-30T22:22:01.650Z,6.10
2023-03-30T22:24:30.615Z,6.90
2023-03-30T22:26:59.902Z,6.70
2023-03-30T22:29:28.718Z,8.67
2023-03-30T22:31:57.813Z,6.10
2023-03-30T22:34:28.426Z,6.13
2023-03-30T22:36:57.490Z,7.97
2023-03-30T22:39:26.422Z,7.27
2023-03-30T22:41:55.369Z,6.80
2023-03-30T22:44:24.196Z,6.37
2023-03-30T22:46:53.785Z,6.03
2023-03-30T22:49:24.696Z,7.10
2023-03-30T22:51:55.117Z,6.47
2023-03-30T22:54:24.697Z,6.40
2023-03-30T22:56:53.683Z,5.87
2023-03-30T22:59:22.848Z,5.40
2023-03-30T23:01:51.996Z,6.60
2023-03-30T23:04:20.729Z,6.00
2023-03-30T23:06:49.985Z,6.37
2023-03-30T23:09:21.557Z,6.57
2023-03-30T23:11:51.242Z,6.17
2023-03-30T23:14:20.285Z,6.23
2023-03-30T23:16:49.316Z,5.80
2023-03-30T23:19:18.938Z,6.23
2023-03-30T23:21:47.885Z,5.47
2023-03-30T23:24:16.650Z,6.07
2023-03-30T23:26:47.319Z,6.67
2023-03-30T23:29:16.211Z,6.50
2023-03-30T23:31:45.278Z,7.27
2023-03-30T23:34:14.372Z,5.80
2023-03-30T23:36:43.360Z,6.20
2023-03-30T23:39:12.320Z,5.67
2023-03-30T23:41:41.386Z,5.97
2023-03-30T23:44:11.645Z,6.27
2023-03-30T23:46:40.703Z,5.90
2023-03-30T23:49:09.735Z,6.27
2023-03-30T23:51:38.644Z,5.80
2023-03-30T23:54:07.680Z,7.50
2023-03-30T23:56:38.378Z,5.70
2023-03-30T23:59:07.519Z,6.93
